Date,TemperatureHighF,TemperatureAvgF,TemperatureLowF,DewpointHighF,DewpointAvgF,DewpointLowF,HumidityHigh,HumidityAvg,HumidityLow,PressureMaxIn,PressureMinIn,WindSpeedMaxMPH,WindSpeedAvgMPH,GustSpeedMaxMPH,PrecipitationSumIn
2013-9-1,80,73,67,72,68,64,94,86,74,29.89,29.84,14,2,14,0.00
2013-9-2,85,73,64,69,64,57,94,76,46,30.02,29.81,17,1,17,0.00
2013-9-3,80,64,50,58,54,47,91,71,48,30.15,30.02,14,0,14,0.00
2013-9-4,89,68,51,64,57,48,92,70,42,30.22,30.12,14,0,14,0.00
2013-9-5,88,71,58,67,59,48,91,68,47,30.27,30.17,8,0,8,0.00
2013-9-6,92,70,53,64,54,45,79,58,39,30.30,30.13,8,0,8,0.00
2013-9-7,94,75,60,68,61,52,82,63,41,30.14,29.99,14,0,14,0.00
2013-9-8,92,77,65,71,65,60,88,69,50,30.07,30.00,13,0,13,0.00
2013-9-9,99,79,64,74,68,60,90,72,46,30.07,29.97,15,2,15,0.00
2013-9-10,104,86,74,74,70,65,87,63,32,30.16,30.03,16,2,16,0.00
2013-9-11,102,84,73,73,67,60,85,59,36,30.18,30.06,31,1,31,0.00
2013-9-12,89,73,62,70,63,52,91,72,42,30.08,29.92,15,1,15,0.94
2013-9-13,72,59,50,53,47,41,84,65,40,30.19,30.07,21,1,21,0.00
2013-9-14,81,58,40,48,42,36,90,60,28,30.26,30.15,12,0,12,0.00
2013-9-15,79,60,47,55,48,38,86,66,39,30.18,30.06,14,1,14,0.31
2013-9-16,67,60,50,56,53,45,91,80,63,30.36,30.16,9,0,9,0.00
2013-9-17,80,61,47,57,50,44,91,71,43,30.40,30.21,12,0,12,0.00
2013-9-18,88,70,59,66,58,50,81,68,48,30.22,30.07,10,0,10,0.00
2013-9-19,86,72,64,73,66,61,93,82,62,30.12,29.95,17,1,17,1.43
2013-9-20,77,72,65,70,67,62,91,84,71,29.99,29.86,14,2,14,0.12
2013-9-21,74,61,51,62,51,43,93,71,44,29.98,29.84,20,1,20,0.00
2013-9-22,76,57,45,53,46,42,93,69,39,30.10,29.98,10,0,10,0.00
2013-9-23,82,59,43,54,46,39,90,66,36,30.18,30.09,13,0,13,0.00
2013-9-24,84,61,44,56,48,40,90,64,36,30.15,29.98,12,0,12,0.00
2013-9-25,85,64,50,58,50,44,84,61,37,30.02,29.96,9,0,9,0.00
2013-9-26,90,65,47,59,51,43,91,65,34,30.15,30.01,8,0,8,0.00
2013-9-27,92,66,48,59,49,42,86,58,28,30.25,30.14,8,0,8,0.00
2013-9-28,88,68,51,61,53,45,82,61,39,30.22,30.07,11,0,11,0.00
2013-9-29,71,63,54,62,57,34,90,80,67,30.08,30.03,10,0,10,0.27
2013-9-30,82,62,50,63,55,47,93,79,48,30.09,29.98,16,1,16,0.02